sensor_id;sensor_type;location;lat;lon;timestamp;temperature;humidity
27266;DHT22;14766;51.380;13.762;2022-10-31T00:01:13;18.50;57.10
27266;DHT22;14766;51.380;13.762;2022-10-31T00:03:41;18.40;57.10
27266;DHT22;14766;51.380;13.762;2022-10-31T00:06:08;18.40;57.10
27266;DHT22;14766;51.380;13.762;2022-10-31T00:08:35;18.40;57.10
27266;DHT22;14766;51.380;13.762;2022-10-31T00:11:02;18.30;57.10
27266;DHT22;14766;51.380;13.762;2022-10-31T00:13:29;18.30;57.10
27266;DHT22;14766;51.380;13.762;2022-10-31T00:15:57;18.30;57.10
27266;DHT22;14766;51.380;13.762;2022-10-31T00:18:24;18.20;57.00
27266;DHT22;14766;51.380;13.762;2022-10-31T00:21:02;18.20;57.00
27266;DHT22;14766;51.380;13.762;2022-10-31T00:23:29;18.20;56.90
27266;DHT22;14766;51.380;13.762;2022-10-31T00:26:01;18.20;56.80
27266;DHT22;14766;51.380;13.762;2022-10-31T00:28:29;18.20;56.80
27266;DHT22;14766;51.380;13.762;2022-10-31T00:31:06;18.20;56.90
27266;DHT22;14766;51.380;13.762;2022-10-31T00:33:35;18.20;56.70
27266;DHT22;14766;51.380;13.762;2022-10-31T00:36:04;18.20;56.60
27266;DHT22;14766;51.380;13.762;2022-10-31T00:38:32;18.30;56.60
27266;DHT22;14766;51.380;13.762;2022-10-31T00:41:00;18.30;56.50
27266;DHT22;14766;51.380;13.762;2022-10-31T00:43:27;18.30;56.50
27266;DHT22;14766;51.380;13.762;2022-10-31T00:45:55;18.30;56.30
27266;DHT22;14766;51.380;13.762;2022-10-31T00:48:23;18.30;56.40
27266;DHT22;14766;51.380;13.762;2022-10-31T00:50:52;18.30;56.30
27266;DHT22;14766;51.380;13.762;2022-10-31T00:53:19;18.30;56.30
27266;DHT22;14766;51.380;13.762;2022-10-31T00:55:46;18.30;56.30
27266;DHT22;14766;51.380;13.762;2022-10-31T00:58:14;18.40;56.30
27266;DHT22;14766;51.380;13.762;2022-10-31T01:00:41;18.40;56.10
27266;DHT22;14766;51.380;13.762;2022-10-31T01:03:12;18.40;56.10
27266;DHT22;14766;51.380;13.762;2022-10-31T01:05:40;18.40;56.10
27266;DHT22;14766;51.380;13.762;2022-10-31T01:08:08;18.30;56.00
27266;DHT22;14766;51.380;13.762;2022-10-31T01:10:35;18.30;56.00
27266;DHT22;14766;51.380;13.762;2022-10-31T01:13:02;18.30;56.00
27266;DHT22;14766;51.380;13.762;2022-10-31T01:15:29;18.20;56.00
27266;DHT22;14766;51.380;13.762;2022-10-31T01:17:56;18.20;56.00
27266;DHT22;14766;51.380;13.762;2022-10-31T01:20:24;18.20;56.00
27266;DHT22;14766;51.380;13.762;2022-10-31T01:22:53;18.10;56.00
27266;DHT22;14766;51.380;13.762;2022-10-31T01:25:23;18.10;56.00
27266;DHT22;14766;51.380;13.762;2022-10-31T01:27:50;18.00;56.10
27266;DHT22;14766;51.380;13.762;2022-10-31T01:30:17;18.00;56.10
27266;DHT22;14766;51.380;13.762;2022-10-31T01:32:44;18.00;56.10
27266;DHT22;14766;51.380;13.762;2022-10-31T01:35:11;17.90;56.10
27266;DHT22;14766;51.380;13.762;2022-10-31T01:37:38;17.90;56.20
27266;DHT22;14766;51.380;13.762;2022-10-31T01:40:06;17.90;56.20
27266;DHT22;14766;51.380;13.762;2022-10-31T01:42:33;17.80;56.20
27266;DHT22;14766;51.380;13.762;2022-10-31T01:45:03;17.80;56.20
27266;DHT22;14766;51.380;13.762;2022-10-31T01:47:45;17.80;56.30
27266;DHT22;14766;51.380;13.762;2022-10-31T01:50:32;17.70;56.30
27266;DHT22;14766;51.380;13.762;2022-10-31T01:53:02;17.70;56.30
27266;DHT22;14766;51.380;13.762;2022-10-31T01:55:33;17.70;56.40
27266;DHT22;14766;51.380;13.762;2022-10-31T01:58:30;17.70;56.50
27266;DHT22;14766;51.380;13.762;2022-10-31T02:01:00;17.70;56.50
27266;DHT22;14766;51.380;13.762;2022-10-31T02:03:35;17.70;56.60
27266;DHT22;14766;51.380;13.762;2022-10-31T02:06:03;17.70;56.50
27266;DHT22;14766;51.380;13.762;2022-10-31T02:08:35;17.60;56.50
27266;DHT22;14766;51.380;13.762;2022-10-31T02:11:03;17.60;56.50
27266;DHT22;14766;51.380;13.762;2022-10-31T02:13:30;17.60;56.50
27266;DHT22;14766;51.380;13.762;2022-10-31T02:15:58;17.60;56.60
27266;DHT22;14766;51.380;13.762;2022-10-31T02:18:27;17.50;56.50
27266;DHT22;14766;51.380;13.762;2022-10-31T02:30:14;17.40;56.60
27266;DHT22;14766;51.380;13.762;2022-10-31T02:33:27;17.40;56.60
27266;DHT22;14766;51.380;13.762;2022-10-31T02:38:31;17.30;56.70
27266;DHT22;14766;51.380;13.762;2022-10-31T02:47:16;17.20;57.00
27266;DHT22;14766;51.380;13.762;2022-10-31T02:49:59;17.20;57.00
27266;DHT22;14766;51.380;13.762;2022-10-31T02:52:29;17.20;57.00
27266;DHT22;14766;51.380;13.762;2022-10-31T02:58:08;17.10;57.80
27266;DHT22;14766;51.380;13.762;2022-10-31T03:06:35;17.00;57.20
27266;DHT22;14766;51.380;13.762;2022-10-31T03:09:33;17.00;57.20
27266;DHT22;14766;51.380;13.762;2022-10-31T03:12:10;16.90;57.30
27266;DHT22;14766;51.380;13.762;2022-10-31T03:17:37;16.90;57.40
27266;DHT22;14766;51.380;13.762;2022-10-31T03:20:07;16.90;57.40
27266;DHT22;14766;51.380;13.762;2022-10-31T03:22:36;16.90;57.60
27266;DHT22;14766;51.380;13.762;2022-10-31T03:25:06;16.80;57.40
27266;DHT22;14766;51.380;13.762;2022-10-31T03:27:35;16.80;57.50
27266;DHT22;14766;51.380;13.762;2022-10-31T03:30:06;16.80;57.60
27266;DHT22;14766;51.380;13.762;2022-10-31T03:32:53;16.80;57.60
27266;DHT22;14766;51.380;13.762;2022-10-31T03:35:23;16.80;57.60
27266;DHT22;14766;51.380;13.762;2022-10-31T03:37:52;16.80;57.70
27266;DHT22;14766;51.380;13.762;2022-10-31T03:40:22;16.70;57.60
27266;DHT22;14766;51.380;13.762;2022-10-31T03:42:59;16.70;57.70
27266;DHT22;14766;51.380;13.762;2022-10-31T03:45:30;16.70;57.60
27266;DHT22;14766;51.380;13.762;2022-10-31T03:47:59;16.70;57.60
27266;DHT22;14766;51.380;13.762;2022-10-31T03:50:35;16.70;57.70
27266;DHT22;14766;51.380;13.762;2022-10-31T03:53:13;16.60;57.70
27266;DHT22;14766;51.380;13.762;2022-10-31T03:56:24;16.60;57.70
27266;DHT22;14766;51.380;13.762;2022-10-31T03:59:19;16.60;57.80
27266;DHT22;14766;51.380;13.762;2022-10-31T04:01:53;16.60;57.80
27266;DHT22;14766;51.380;13.762;2022-10-31T04:04:22;16.50;57.70
27266;DHT22;14766;51.380;13.762;2022-10-31T04:06:52;16.50;57.80
27266;DHT22;14766;51.380;13.762;2022-10-31T04:09:20;16.50;57.80
27266;DHT22;14766;51.380;13.762;2022-10-31T04:11:52;16.50;57.90
27266;DHT22;14766;51.380;13.762;2022-10-31T04:14:36;16.40;57.90
27266;DHT22;14766;51.380;13.762;2022-10-31T04:17:07;16.40;57.90
27266;DHT22;14766;51.380;13.762;2022-10-31T04:19:39;16.40;57.90
27266;DHT22;14766;51.380;13.762;2022-10-31T04:22:07;16.40;57.90
27266;DHT22;14766;51.380;13.762;2022-10-31T04:24:34;16.40;58.10
27266;DHT22;14766;51.380;13.762;2022-10-31T04:27:01;16.30;58.00
27266;DHT22;14766;51.380;13.762;2022-10-31T04:29:29;16.30;58.00
27266;DHT22;14766;51.380;13.762;2022-10-31T04:31:57;16.30;58.10
27266;DHT22;14766;51.380;13.762;2022-10-31T04:34:26;16.30;58.20
27266;DHT22;14766;51.380;13.762;2022-10-31T04:36:53;16.30;58.30
27266;DHT22;14766;51.380;13.762;2022-10-31T04:39:20;16.30;58.30
27266;DHT22;14766;51.380;13.762;2022-10-31T04:42:21;16.30;58.30
27266;DHT22;14766;51.380;13.762;2022-10-31T04:44:48;16.30;58.30
27266;DHT22;14766;51.380;13.762;2022-10-31T04:47:16;16.20;58.30
27266;DHT22;14766;51.380;13.762;2022-10-31T04:49:43;16.20;58.30
27266;DHT22;14766;51.380;13.762;2022-10-31T04:52:13;16.20;58.40
27266;DHT22;14766;51.380;13.762;2022-10-31T04:54:41;16.20;58.40
27266;DHT22;14766;51.380;13.762;2022-10-31T04:57:27;16.20;58.50
27266;DHT22;14766;51.380;13.762;2022-10-31T04:59:54;16.20;58.50
27266;DHT22;14766;51.380;13.762;2022-10-31T05:02:23;16.10;58.40
27266;DHT22;14766;51.380;13.762;2022-10-31T05:04:54;16.20;58.50
27266;DHT22;14766;51.380;13.762;2022-10-31T05:07:22;16.10;58.40
27266;DHT22;14766;51.380;13.762;2022-10-31T05:09:49;16.10;58.40
27266;DHT22;14766;51.380;13.762;2022-10-31T05:12:18;16.10;58.50
27266;DHT22;14766;51.380;13.762;2022-10-31T05:15:14;16.10;58.50
27266;DHT22;14766;51.380;13.762;2022-10-31T05:18:00;16.10;58.60
27266;DHT22;14766;51.380;13.762;2022-10-31T05:20:48;16.10;58.90
27266;DHT22;14766;51.380;13.762;2022-10-31T05:23:23;16.10;58.50
27266;DHT22;14766;51.380;13.762;2022-10-31T05:25:50;16.00;58.50
27266;DHT22;14766;51.380;13.762;2022-10-31T05:28:17;16.00;58.50
27266;DHT22;14766;51.380;13.762;2022-10-31T05:30:44;16.00;58.50
27266;DHT22;14766;51.380;13.762;2022-10-31T05:33:14;16.00;58.60
27266;DHT22;14766;51.380;13.762;2022-10-31T05:35:59;15.90;58.50
27266;DHT22;14766;51.380;13.762;2022-10-31T05:38:33;15.90;58.60
27266;DHT22;14766;51.380;13.762;2022-10-31T05:41:11;15.90;58.60
27266;DHT22;14766;51.380;13.762;2022-10-31T05:43:45;15.90;58.70
27266;DHT22;14766;51.380;13.762;2022-10-31T05:46:13;15.90;58.70
27266;DHT22;14766;51.380;13.762;2022-10-31T05:49:18;15.90;58.70
27266;DHT22;14766;51.380;13.762;2022-10-31T05:52:20;15.80;58.80
27266;DHT22;14766;51.380;13.762;2022-10-31T05:54:56;15.80;58.70
27266;DHT22;14766;51.380;13.762;2022-10-31T05:57:23;15.80;58.80
27266;DHT22;14766;51.380;13.762;2022-10-31T05:59:52;15.80;58.90
27266;DHT22;14766;51.380;13.762;2022-10-31T06:02:23;15.70;58.90
27266;DHT22;14766;51.380;13.762;2022-10-31T06:05:10;15.70;58.90
27266;DHT22;14766;51.380;13.762;2022-10-31T06:07:37;15.70;59.00
27266;DHT22;14766;51.380;13.762;2022-10-31T06:10:07;15.70;59.10
27266;DHT22;14766;51.380;13.762;2022-10-31T06:12:35;15.70;59.10
27266;DHT22;14766;51.380;13.762;2022-10-31T06:15:30;15.70;59.10
27266;DHT22;14766;51.380;13.762;2022-10-31T06:18:03;15.70;59.10
27266;DHT22;14766;51.380;13.762;2022-10-31T06:20:42;15.70;59.20
27266;DHT22;14766;51.380;13.762;2022-10-31T06:23:10;15.70;59.20
27266;DHT22;14766;51.380;13.762;2022-10-31T06:25:37;15.70;59.20
27266;DHT22;14766;51.380;13.762;2022-10-31T06:28:05;15.80;59.40
27266;DHT22;14766;51.380;13.762;2022-10-31T06:30:46;15.80;59.50
27266;DHT22;14766;51.380;13.762;2022-10-31T06:33:15;15.80;59.80
27266;DHT22;14766;51.380;13.762;2022-10-31T06:35:53;15.90;60.20
27266;DHT22;14766;51.380;13.762;2022-10-31T06:38:20;16.10;60.50
27266;DHT22;14766;51.380;13.762;2022-10-31T06:40:47;16.40;60.60
27266;DHT22;14766;51.380;13.762;2022-10-31T06:43:35;16.60;60.50
27266;DHT22;14766;51.380;13.762;2022-10-31T06:46:31;16.90;60.20
27266;DHT22;14766;51.380;13.762;2022-10-31T06:49:08;17.30;59.00
27266;DHT22;14766;51.380;13.762;2022-10-31T06:51:41;17.60;58.90
27266;DHT22;14766;51.380;13.762;2022-10-31T06:54:09;17.80;58.40
27266;DHT22;14766;51.380;13.762;2022-10-31T06:56:36;18.10;57.80
27266;DHT22;14766;51.380;13.762;2022-10-31T06:59:15;18.30;57.50
27266;DHT22;14766;51.380;13.762;2022-10-31T07:02:12;18.40;57.00
27266;DHT22;14766;51.380;13.762;2022-10-31T07:04:42;18.50;56.70
27266;DHT22;14766;51.380;13.762;2022-10-31T07:07:19;18.70;56.90
27266;DHT22;14766;51.380;13.762;2022-10-31T07:09:53;18.90;57.10
27266;DHT22;14766;51.380;13.762;2022-10-31T07:13:11;19.20;57.30
27266;DHT22;14766;51.380;13.762;2022-10-31T07:15:44;19.60;57.10
27266;DHT22;14766;51.380;13.762;2022-10-31T07:18:13;20.00;56.70
27266;DHT22;14766;51.380;13.762;2022-10-31T07:20:41;20.40;56.20
27266;DHT22;14766;51.380;13.762;2022-10-31T07:23:12;20.70;55.90
27266;DHT22;14766;51.380;13.762;2022-10-31T07:26:34;21.20;55.30
27266;DHT22;14766;51.380;13.762;2022-10-31T07:29:01;21.70;54.70
27266;DHT22;14766;51.380;13.762;2022-10-31T07:31:28;22.10;54.30
27266;DHT22;14766;51.380;13.762;2022-10-31T07:34:02;22.40;53.50
27266;DHT22;14766;51.380;13.762;2022-10-31T07:36:50;22.70;52.90
27266;DHT22;14766;51.380;13.762;2022-10-31T07:39:18;23.10;52.10
27266;DHT22;14766;51.380;13.762;2022-10-31T07:41:45;23.40;51.70
27266;DHT22;14766;51.380;13.762;2022-10-31T07:44:16;23.70;51.20
27266;DHT22;14766;51.380;13.762;2022-10-31T07:47:04;24.10;50.70
27266;DHT22;14766;51.380;13.762;2022-10-31T07:49:54;24.50;50.50
27266;DHT22;14766;51.380;13.762;2022-10-31T07:52:45;24.90;49.50
27266;DHT22;14766;51.380;13.762;2022-10-31T07:55:38;25.20;48.90
27266;DHT22;14766;51.380;13.762;2022-10-31T07:58:09;25.60;47.70
27266;DHT22;14766;51.380;13.762;2022-10-31T08:00:40;25.90;47.40
27266;DHT22;14766;51.380;13.762;2022-10-31T08:03:11;26.10;46.80
27266;DHT22;14766;51.380;13.762;2022-10-31T08:06:01;26.40;46.10
27266;DHT22;14766;51.380;13.762;2022-10-31T08:08:56;26.70;45.70
27266;DHT22;14766;51.380;13.762;2022-10-31T08:11:23;27.00;43.10
27266;DHT22;14766;51.380;13.762;2022-10-31T08:13:51;27.20;45.10
27266;DHT22;14766;51.380;13.762;2022-10-31T08:16:19;27.40;44.40
27266;DHT22;14766;51.380;13.762;2022-10-31T08:18:55;27.60;43.60
27266;DHT22;14766;51.380;13.762;2022-10-31T08:21:23;27.90;42.20
27266;DHT22;14766;51.380;13.762;2022-10-31T08:23:50;28.00;41.20
27266;DHT22;14766;51.380;13.762;2022-10-31T08:26:20;28.10;40.20
27266;DHT22;14766;51.380;13.762;2022-10-31T08:28:49;28.20;40.20
27266;DHT22;14766;51.380;13.762;2022-10-31T08:31:19;28.20;40.00
27266;DHT22;14766;51.380;13.762;2022-10-31T08:33:46;28.20;39.40
27266;DHT22;14766;51.380;13.762;2022-10-31T08:36:32;28.30;39.40
27266;DHT22;14766;51.380;13.762;2022-10-31T08:39:19;28.30;39.00
27266;DHT22;14766;51.380;13.762;2022-10-31T08:41:46;28.40;39.20
27266;DHT22;14766;51.380;13.762;2022-10-31T08:44:13;28.40;38.80
27266;DHT22;14766;51.380;13.762;2022-10-31T08:46:43;28.60;39.00
27266;DHT22;14766;51.380;13.762;2022-10-31T08:49:11;28.70;38.30
27266;DHT22;14766;51.380;13.762;2022-10-31T08:51:41;28.80;37.60
27266;DHT22;14766;51.380;13.762;2022-10-31T08:54:08;28.90;37.30
27266;DHT22;14766;51.380;13.762;2022-10-31T08:56:35;29.00;36.90
27266;DHT22;14766;51.380;13.762;2022-10-31T08:59:09;29.10;37.30
27266;DHT22;14766;51.380;13.762;2022-10-31T09:02:02;29.10;37.30
27266;DHT22;14766;51.380;13.762;2022-10-31T09:04:29;29.20;37.20
27266;DHT22;14766;51.380;13.762;2022-10-31T09:06:56;29.30;37.00
27266;DHT22;14766;51.380;13.762;2022-10-31T09:09:43;29.40;37.10
27266;DHT22;14766;51.380;13.762;2022-10-31T09:12:11;29.50;37.10
27266;DHT22;14766;51.380;13.762;2022-10-31T09:14:57;29.60;36.40
27266;DHT22;14766;51.380;13.762;2022-10-31T09:17:34;29.60;36.20
27266;DHT22;14766;51.380;13.762;2022-10-31T09:20:18;29.80;36.20
27266;DHT22;14766;51.380;13.762;2022-10-31T09:22:46;29.80;36.10
27266;DHT22;14766;51.380;13.762;2022-10-31T09:25:14;29.90;35.80
27266;DHT22;14766;51.380;13.762;2022-10-31T09:27:47;29.90;35.60
27266;DHT22;14766;51.380;13.762;2022-10-31T09:30:14;30.00;35.60
27266;DHT22;14766;51.380;13.762;2022-10-31T09:32:44;30.00;35.40
27266;DHT22;14766;51.380;13.762;2022-10-31T09:35:11;30.10;35.20
27266;DHT22;14766;51.380;13.762;2022-10-31T09:37:38;30.20;35.20
27266;DHT22;14766;51.380;13.762;2022-10-31T09:40:08;30.20;35.10
27266;DHT22;14766;51.380;13.762;2022-10-31T09:42:54;30.20;35.10
27266;DHT22;14766;51.380;13.762;2022-10-31T09:45:34;30.20;34.70
27266;DHT22;14766;51.380;13.762;2022-10-31T09:54:05;30.20;34.90
27266;DHT22;14766;51.380;13.762;2022-10-31T09:56:33;30.20;34.70
27266;DHT22;14766;51.380;13.762;2022-10-31T09:59:05;30.20;34.60
27266;DHT22;14766;51.380;13.762;2022-10-31T10:01:44;30.10;34.80
27266;DHT22;14766;51.380;13.762;2022-10-31T10:04:58;30.10;35.00
27266;DHT22;14766;51.380;13.762;2022-10-31T10:22:55;29.70;35.50
27266;DHT22;14766;51.380;13.762;2022-10-31T10:25:31;29.70;35.80
27266;DHT22;14766;51.380;13.762;2022-10-31T10:30:43;29.70;36.00
27266;DHT22;14766;51.380;13.762;2022-10-31T10:33:16;29.70;36.10
27266;DHT22;14766;51.380;13.762;2022-10-31T10:35:53;29.80;36.20
27266;DHT22;14766;51.380;13.762;2022-10-31T10:38:36;29.80;36.20
27266;DHT22;14766;51.380;13.762;2022-10-31T10:41:10;29.90;36.00
27266;DHT22;14766;51.380;13.762;2022-10-31T10:43:39;29.90;35.70
27266;DHT22;14766;51.380;13.762;2022-10-31T10:46:27;29.80;35.90
27266;DHT22;14766;51.380;13.762;2022-10-31T10:58:19;29.70;36.40
27266;DHT22;14766;51.380;13.762;2022-10-31T11:00:47;29.80;36.40
27266;DHT22;14766;51.380;13.762;2022-10-31T11:03:15;29.80;36.40
27266;DHT22;14766;51.380;13.762;2022-10-31T11:05:55;29.80;36.20
27266;DHT22;14766;51.380;13.762;2022-10-31T11:08:33;29.80;36.30
27266;DHT22;14766;51.380;13.762;2022-10-31T11:13:32;29.80;36.30
27266;DHT22;14766;51.380;13.762;2022-10-31T11:16:01;29.80;36.50
27266;DHT22;14766;51.380;13.762;2022-10-31T11:18:31;29.70;36.60
27266;DHT22;14766;51.380;13.762;2022-10-31T11:21:02;29.70;36.70
27266;DHT22;14766;51.380;13.762;2022-10-31T11:23:31;29.60;36.70
27266;DHT22;14766;51.380;13.762;2022-10-31T11:26:05;29.60;36.80
27266;DHT22;14766;51.380;13.762;2022-10-31T11:28:33;29.50;37.00
27266;DHT22;14766;51.380;13.762;2022-10-31T11:31:28;29.40;37.10
27266;DHT22;14766;51.380;13.762;2022-10-31T11:34:11;29.40;37.20
27266;DHT22;14766;51.380;13.762;2022-10-31T11:36:43;29.30;37.30
27266;DHT22;14766;51.380;13.762;2022-10-31T11:39:22;29.20;37.30
27266;DHT22;14766;51.380;13.762;2022-10-31T11:41:52;29.10;37.60
27266;DHT22;14766;51.380;13.762;2022-10-31T11:46:56;28.80;37.70
27266;DHT22;14766;51.380;13.762;2022-10-31T11:49:36;28.70;37.90
27266;DHT22;14766;51.380;13.762;2022-10-31T11:52:17;28.60;38.20
27266;DHT22;14766;51.380;13.762;2022-10-31T11:55:34;28.40;38.40
27266;DHT22;14766;51.380;13.762;2022-10-31T11:58:04;28.30;38.80
27266;DHT22;14766;51.380;13.762;2022-10-31T12:00:52;28.10;38.90
27266;DHT22;14766;51.380;13.762;2022-10-31T12:06:03;27.80;39.40
27266;DHT22;14766;51.380;13.762;2022-10-31T12:08:34;27.70;39.90
27266;DHT22;14766;51.380;13.762;2022-10-31T12:17:09;27.30;40.60
27266;DHT22;14766;51.380;13.762;2022-10-31T12:19:54;27.20;41.10
27266;DHT22;14766;51.380;13.762;2022-10-31T12:26:45;27.00;41.30
27266;DHT22;14766;51.380;13.762;2022-10-31T12:45:56;26.30;43.10
27266;DHT22;14766;51.380;13.762;2022-10-31T13:01:32;25.90;44.20
27266;DHT22;14766;51.380;13.762;2022-10-31T13:04:21;25.90;44.10
27266;DHT22;14766;51.380;13.762;2022-10-31T13:07:02;25.80;44.20
27266;DHT22;14766;51.380;13.762;2022-10-31T13:09:37;25.70;44.60
27266;DHT22;14766;51.380;13.762;2022-10-31T13:12:14;25.60;44.60
27266;DHT22;14766;51.380;13.762;2022-10-31T13:14:43;25.60;44.80
27266;DHT22;14766;51.380;13.762;2022-10-31T13:17:33;25.50;44.90
27266;DHT22;14766;51.380;13.762;2022-10-31T13:22:53;25.50;45.00
27266;DHT22;14766;51.380;13.762;2022-10-31T13:25:28;25.40;45.00
27266;DHT22;14766;51.380;13.762;2022-10-31T13:28:04;25.40;45.30
27266;DHT22;14766;51.380;13.762;2022-10-31T13:30:34;25.30;45.40
27266;DHT22;14766;51.380;13.762;2022-10-31T13:33:15;25.30;45.20
27266;DHT22;14766;51.380;13.762;2022-10-31T13:35:52;25.20;45.50
27266;DHT22;14766;51.380;13.762;2022-10-31T13:38:23;25.20;45.70
27266;DHT22;14766;51.380;13.762;2022-10-31T13:40:57;25.10;45.80
27266;DHT22;14766;51.380;13.762;2022-10-31T13:44:13;25.10;45.80
27266;DHT22;14766;51.380;13.762;2022-10-31T13:46:36;25.00;45.80
27266;DHT22;14766;51.380;13.762;2022-10-31T13:49:37;25.00;46.20
27266;DHT22;14766;51.380;13.762;2022-10-31T13:54:55;24.80;46.50
27266;DHT22;14766;51.380;13.762;2022-10-31T13:57:50;24.80;46.40
27266;DHT22;14766;51.380;13.762;2022-10-31T14:02:56;24.70;46.60
27266;DHT22;14766;51.380;13.762;2022-10-31T14:05:31;24.70;46.70
27266;DHT22;14766;51.380;13.762;2022-10-31T14:08:03;24.60;46.90
27266;DHT22;14766;51.380;13.762;2022-10-31T14:10:36;24.60;47.00
27266;DHT22;14766;51.380;13.762;2022-10-31T14:13:15;24.60;47.20
27266;DHT22;14766;51.380;13.762;2022-10-31T14:16:00;24.50;47.30
27266;DHT22;14766;51.380;13.762;2022-10-31T14:18:34;24.50;47.30
27266;DHT22;14766;51.380;13.762;2022-10-31T14:23:54;24.40;47.60
27266;DHT22;14766;51.380;13.762;2022-10-31T14:26:32;24.40;47.50
27266;DHT22;14766;51.380;13.762;2022-10-31T14:31:45;24.30;47.60
27266;DHT22;14766;51.380;13.762;2022-10-31T14:40:14;24.20;49.20
27266;DHT22;14766;51.380;13.762;2022-10-31T14:48:43;24.10;49.20
27266;DHT22;14766;51.380;13.762;2022-10-31T14:51:18;24.00;48.90
27266;DHT22;14766;51.380;13.762;2022-10-31T14:53:54;23.90;49.20
27266;DHT22;14766;51.380;13.762;2022-10-31T14:56:27;23.90;49.70
27266;DHT22;14766;51.380;13.762;2022-10-31T14:58:58;23.90;49.80
27266;DHT22;14766;51.380;13.762;2022-10-31T15:01:35;23.80;49.90
27266;DHT22;14766;51.380;13.762;2022-10-31T15:04:15;23.70;50.30
27266;DHT22;14766;51.380;13.762;2022-10-31T15:07:00;23.60;50.40
27266;DHT22;14766;51.380;13.762;2022-10-31T15:09:34;23.60;50.50
27266;DHT22;14766;51.380;13.762;2022-10-31T15:12:27;23.50;50.60
27266;DHT22;14766;51.380;13.762;2022-10-31T15:14:55;23.40;51.10
27266;DHT22;14766;51.380;13.762;2022-10-31T15:17:26;23.40;51.10
27266;DHT22;14766;51.380;13.762;2022-10-31T15:19:53;23.30;51.20
27266;DHT22;14766;51.380;13.762;2022-10-31T15:22:23;23.20;51.30
27266;DHT22;14766;51.380;13.762;2022-10-31T15:24:50;23.10;51.40
27266;DHT22;14766;51.380;13.762;2022-10-31T15:27:23;23.00;51.60
27266;DHT22;14766;51.380;13.762;2022-10-31T15:29:56;23.00;51.70
27266;DHT22;14766;51.380;13.762;2022-10-31T15:32:28;22.90;51.90
27266;DHT22;14766;51.380;13.762;2022-10-31T15:34:56;22.80;51.90
27266;DHT22;14766;51.380;13.762;2022-10-31T15:37:26;22.70;52.00
27266;DHT22;14766;51.380;13.762;2022-10-31T15:39:53;22.60;52.20
27266;DHT22;14766;51.380;13.762;2022-10-31T15:42:27;22.50;52.50
27266;DHT22;14766;51.380;13.762;2022-10-31T15:45:16;22.50;52.60
27266;DHT22;14766;51.380;13.762;2022-10-31T15:48:13;22.40;53.00
27266;DHT22;14766;51.380;13.762;2022-10-31T15:50:56;22.20;53.30
27266;DHT22;14766;51.380;13.762;2022-10-31T15:53:30;22.20;53.20
27266;DHT22;14766;51.380;13.762;2022-10-31T15:56:05;22.10;53.00
27266;DHT22;14766;51.380;13.762;2022-10-31T15:58:43;22.00;53.30
27266;DHT22;14766;51.380;13.762;2022-10-31T16:06:26;21.70;53.70
27266;DHT22;14766;51.380;13.762;2022-10-31T16:08:53;21.70;53.80
27266;DHT22;14766;51.380;13.762;2022-10-31T16:11:32;21.60;54.00
27266;DHT22;14766;51.380;13.762;2022-10-31T16:16:48;21.40;54.20
27266;DHT22;14766;51.380;13.762;2022-10-31T16:19:24;21.40;54.20
27266;DHT22;14766;51.380;13.762;2022-10-31T16:22:20;21.30;54.40
27266;DHT22;14766;51.380;13.762;2022-10-31T16:24:58;21.20;54.40
27266;DHT22;14766;51.380;13.762;2022-10-31T16:27:29;21.20;54.70
27266;DHT22;14766;51.380;13.762;2022-10-31T16:29:58;21.10;54.80
27266;DHT22;14766;51.380;13.762;2022-10-31T16:32:57;21.00;54.90
27266;DHT22;14766;51.380;13.762;2022-10-31T16:35:31;21.00;55.20
27266;DHT22;14766;51.380;13.762;2022-10-31T16:37:59;20.90;55.30
27266;DHT22;14766;51.380;13.762;2022-10-31T16:40:26;20.80;55.50
27266;DHT22;14766;51.380;13.762;2022-10-31T16:42:53;20.80;55.50
27266;DHT22;14766;51.380;13.762;2022-10-31T16:45:25;20.70;55.60
27266;DHT22;14766;51.380;13.762;2022-10-31T16:47:52;20.60;55.50
27266;DHT22;14766;51.380;13.762;2022-10-31T16:50:24;20.60;55.50
27266;DHT22;14766;51.380;13.762;2022-10-31T16:52:52;20.60;55.60
27266;DHT22;14766;51.380;13.762;2022-10-31T16:55:46;20.50;55.70
27266;DHT22;14766;51.380;13.762;2022-10-31T16:58:24;20.50;56.00
27266;DHT22;14766;51.380;13.762;2022-10-31T17:00:53;20.40;56.20
27266;DHT22;14766;51.380;13.762;2022-10-31T17:03:26;20.40;56.40
27266;DHT22;14766;51.380;13.762;2022-10-31T17:05:59;20.30;56.50
27266;DHT22;14766;51.380;13.762;2022-10-31T17:08:32;20.30;56.70
27266;DHT22;14766;51.380;13.762;2022-10-31T17:11:17;20.20;56.70
27266;DHT22;14766;51.380;13.762;2022-10-31T17:18:25;20.10;57.10
27266;DHT22;14766;51.380;13.762;2022-10-31T17:20:59;20.00;56.70
27266;DHT22;14766;51.380;13.762;2022-10-31T17:23:33;20.00;57.00
27266;DHT22;14766;51.380;13.762;2022-10-31T17:26:14;19.90;56.90
27266;DHT22;14766;51.380;13.762;2022-10-31T17:28:46;19.90;56.90
27266;DHT22;14766;51.380;13.762;2022-10-31T17:31:31;19.80;57.00
27266;DHT22;14766;51.380;13.762;2022-10-31T17:34:02;19.80;57.20
27266;DHT22;14766;51.380;13.762;2022-10-31T17:36:56;19.80;57.30
27266;DHT22;14766;51.380;13.762;2022-10-31T17:40:43;19.70;57.40
27266;DHT22;14766;51.380;13.762;2022-10-31T17:44:10;19.60;57.50
27266;DHT22;14766;51.380;13.762;2022-10-31T17:47:44;19.60;57.90
27266;DHT22;14766;51.380;13.762;2022-10-31T17:50:42;19.60;57.60
27266;DHT22;14766;51.380;13.762;2022-10-31T17:53:40;19.50;57.60
27266;DHT22;14766;51.380;13.762;2022-10-31T17:57:17;19.50;57.60
27266;DHT22;14766;51.380;13.762;2022-10-31T18:00:29;19.40;57.60
27266;DHT22;14766;51.380;13.762;2022-10-31T18:03:26;19.30;57.70
27266;DHT22;14766;51.380;13.762;2022-10-31T18:07:15;19.30;57.60
27266;DHT22;14766;51.380;13.762;2022-10-31T18:11:23;19.30;57.70
27266;DHT22;14766;51.380;13.762;2022-10-31T18:13:54;19.30;57.40
27266;DHT22;14766;51.380;13.762;2022-10-31T18:16:24;19.20;57.60
27266;DHT22;14766;51.380;13.762;2022-10-31T18:22:59;19.10;58.10
27266;DHT22;14766;51.380;13.762;2022-10-31T18:25:30;19.10;57.90
27266;DHT22;14766;51.380;13.762;2022-10-31T18:28:00;19.10;57.90
27266;DHT22;14766;51.380;13.762;2022-10-31T18:30:29;19.00;57.90
27266;DHT22;14766;51.380;13.762;2022-10-31T18:37:41;18.90;58.20
27266;DHT22;14766;51.380;13.762;2022-10-31T19:04:09;18.70;59.20
27266;DHT22;14766;51.380;13.762;2022-10-31T19:06:39;18.70;59.00
27266;DHT22;14766;51.380;13.762;2022-10-31T19:09:56;18.70;59.00
27266;DHT22;14766;51.380;13.762;2022-10-31T19:16:04;18.70;59.50